createdAt,value
2022-10-09T00:01:31.892Z,17.86
2022-10-09T00:03:59.749Z,18.00
2022-10-09T00:06:32.131Z,17.90
2022-10-09T00:09:04.451Z,17.37
2022-10-09T00:11:34.252Z,17.61
2022-10-09T00:14:04.480Z,17.86
2022-10-09T00:16:32.091Z,18.12
2022-10-09T00:18:59.383Z,18.04
2022-10-09T00:21:33.069Z,17.96
2022-10-09T00:24:05.768Z,17.91
2022-10-09T00:26:33.889Z,18.05
2022-10-09T00:29:01.188Z,18.16
2022-10-09T00:31:28.468Z,18.13
2022-10-09T00:33:55.888Z,17.80
2022-10-09T00:36:27.325Z,17.93
2022-10-09T00:38:55.911Z,17.84
2022-10-09T00:41:31.274Z,17.87
2022-10-09T00:44:24.754Z,18.15
2022-10-09T00:46:53.129Z,18.41
2022-10-09T00:49:29.206Z,18.49
2022-10-09T00:52:02.512Z,18.31
2022-10-09T00:54:37.273Z,18.33
2022-10-09T00:57:04.460Z,18.32
2022-10-09T00:59:33.368Z,18.19
2022-10-09T01:02:00.716Z,18.10
2022-10-09T01:04:28.369Z,18.10
2022-10-09T01:07:20.971Z,18.11
2022-10-09T01:10:08.904Z,17.71
2022-10-09T01:13:09.076Z,17.67
2022-10-09T01:15:56.742Z,17.77
2022-10-09T01:18:43.665Z,17.75
2022-10-09T01:21:25.529Z,17.75
2022-10-09T01:24:26.253Z,17.69
2022-10-09T01:27:22.263Z,17.86
2022-10-09T01:29:59.873Z,18.07
2022-10-09T01:32:37.818Z,17.80
2022-10-09T01:35:07.624Z,17.69
2022-10-09T01:37:38.612Z,16.90
2022-10-09T01:40:08.549Z,16.88
2022-10-09T01:42:35.777Z,17.00
2022-10-09T01:45:02.924Z,17.16
2022-10-09T01:47:30.106Z,16.85
2022-10-09T01:50:25.074Z,16.63
2022-10-09T01:53:00.480Z,16.44
2022-10-09T01:56:09.515Z,15.88
2022-10-09T01:58:53.373Z,16.78
2022-10-09T02:01:28.712Z,16.08
2022-10-09T02:04:01.289Z,15.91
2022-10-09T02:06:31.286Z,15.89
2022-10-09T02:08:59.804Z,16.45
2022-10-09T02:11:32.280Z,16.42
2022-10-09T02:14:00.130Z,16.66
2022-10-09T02:17:02.152Z,16.42
2022-10-09T02:19:56.867Z,16.55
2022-10-09T02:22:29.606Z,16.62
2022-10-09T02:25:02.161Z,16.83
2022-10-09T02:27:33.584Z,16.61
2022-10-09T02:30:02.539Z,16.61
2022-10-09T02:32:29.758Z,16.87
2022-10-09T02:34:56.937Z,16.41
2022-10-09T02:37:24.391Z,15.85
2022-10-09T02:39:51.516Z,15.60
2022-10-09T02:42:19.065Z,16.63
2022-10-09T02:44:46.230Z,16.98
2022-10-09T02:47:13.365Z,16.97
2022-10-09T02:49:40.439Z,16.87
2022-10-09T02:52:07.859Z,16.56
2022-10-09T02:54:35.062Z,17.05
2022-10-09T02:57:02.356Z,16.87
2022-10-09T02:59:29.379Z,17.14
2022-10-09T03:01:56.668Z,17.28
2022-10-09T03:04:23.889Z,17.10
2022-10-09T03:06:51.009Z,17.19
2022-10-09T03:09:18.084Z,16.93
2022-10-09T03:11:45.313Z,17.06
2022-10-09T03:14:12.304Z,17.30
2022-10-09T03:16:39.535Z,17.42
2022-10-09T03:19:06.655Z,17.30
2022-10-09T03:21:33.763Z,17.47
2022-10-09T03:24:02.003Z,17.35
2022-10-09T03:26:29.602Z,17.29
2022-10-09T03:28:58.917Z,17.13
2022-10-09T03:31:51.301Z,17.22
2022-10-09T03:34:14.548Z,17.49
2022-10-09T03:36:42.436Z,17.77
2022-10-09T03:39:09.675Z,17.43
2022-10-09T03:41:36.837Z,15.32
2022-10-09T03:44:05.489Z,15.13
2022-10-09T03:46:32.692Z,14.91
2022-10-09T03:48:59.811Z,15.08
2022-10-09T03:51:27.567Z,14.61
2022-10-09T03:53:54.622Z,14.62
2022-10-09T03:56:21.822Z,14.33
2022-10-09T03:58:48.904Z,14.70
2022-10-09T04:01:16.051Z,15.34
2022-10-09T04:03:43.194Z,15.30
2022-10-09T04:06:10.557Z,15.94
2022-10-09T04:08:37.594Z,16.12
2022-10-09T04:11:04.889Z,16.20
2022-10-09T04:13:32.045Z,16.28
2022-10-09T04:15:59.425Z,16.57
2022-10-09T04:18:26.822Z,16.43
2022-10-09T04:20:56.787Z,16.49
2022-10-09T04:23:27.217Z,16.45
2022-10-09T04:26:00.031Z,16.67
2022-10-09T04:28:31.880Z,16.99
2022-10-09T04:31:00.079Z,17.04
2022-10-09T04:33:28.139Z,17.04
2022-10-09T04:35:56.848Z,17.31
2022-10-09T04:38:25.518Z,17.44
2022-10-09T04:41:08.733Z,17.44
2022-10-09T04:43:36.114Z,17.45
2022-10-09T04:46:10.101Z,17.29
2022-10-09T04:48:46.362Z,17.44
2022-10-09T04:51:15.871Z,16.96
2022-10-09T04:53:44.613Z,16.51
2022-10-09T04:56:20.724Z,16.17
2022-10-09T04:58:50.983Z,16.70
2022-10-09T05:01:29.723Z,16.63
2022-10-09T05:03:59.454Z,17.08
2022-10-09T05:06:26.630Z,17.01
2022-10-09T05:08:55.952Z,16.78
2022-10-09T05:11:25.693Z,16.85
2022-10-09T05:13:56.456Z,16.86
2022-10-09T05:16:28.403Z,16.78
2022-10-09T05:18:59.133Z,16.80
2022-10-09T05:21:28.570Z,16.96
2022-10-09T05:23:56.467Z,17.22
2022-10-09T05:26:26.580Z,17.45
2022-10-09T05:28:54.414Z,17.37
2022-10-09T05:31:28.751Z,17.44
2022-10-09T05:33:59.635Z,17.51
2022-10-09T05:36:26.925Z,17.65
2022-10-09T05:38:54.006Z,17.79
2022-10-09T05:41:21.489Z,17.93
2022-10-09T05:43:50.477Z,17.97
2022-10-09T05:46:24.461Z,18.27
2022-10-09T05:49:07.017Z,18.20
2022-10-09T05:51:40.103Z,18.27
2022-10-09T05:54:07.665Z,18.00
2022-10-09T05:56:38.119Z,18.13
2022-10-09T05:59:13.911Z,18.29
2022-10-09T06:01:50.576Z,18.08
2022-10-09T06:04:25.457Z,18.11
2022-10-09T06:06:52.966Z,18.30
2022-10-09T06:09:23.832Z,18.67
2022-10-09T06:11:52.779Z,17.73
2022-10-09T06:14:22.460Z,16.89
2022-10-09T06:16:52.858Z,16.51
2022-10-09T06:19:39.756Z,16.45
2022-10-09T06:22:07.004Z,16.81
2022-10-09T06:24:33.955Z,17.85
2022-10-09T06:27:01.251Z,17.76
2022-10-09T06:29:28.271Z,18.54
2022-10-09T06:31:55.457Z,18.72
2022-10-09T06:34:30.465Z,19.03
2022-10-09T06:36:57.760Z,19.48
2022-10-09T06:39:26.591Z,19.65
2022-10-09T06:41:53.744Z,19.82
2022-10-09T06:44:23.560Z,20.18
2022-10-09T06:46:52.164Z,20.28
2022-10-09T06:49:22.196Z,20.48
2022-10-09T06:51:49.307Z,19.90
2022-10-09T06:54:19.273Z,19.98
2022-10-09T06:56:46.460Z,20.53
2022-10-09T06:59:13.666Z,20.84
2022-10-09T07:01:43.371Z,20.65
2022-10-09T07:04:14.691Z,20.73
2022-10-09T07:06:48.365Z,20.67
2022-10-09T07:09:16.540Z,20.98
2022-10-09T07:11:49.499Z,20.65
2022-10-09T07:14:17.497Z,20.82
2022-10-09T07:16:48.731Z,21.27
2022-10-09T07:19:18.807Z,21.46
2022-10-09T07:21:50.421Z,21.54
2022-10-09T07:24:20.642Z,21.49
2022-10-09T07:26:48.902Z,21.30
2022-10-09T07:29:21.863Z,20.86
2022-10-09T07:31:50.041Z,21.46
2022-10-09T07:34:17.440Z,21.06
2022-10-09T07:36:44.579Z,21.18
2022-10-09T07:39:11.739Z,21.05
2022-10-09T07:41:38.939Z,21.68
2022-10-09T07:44:06.166Z,21.39
2022-10-09T07:46:34.271Z,21.27
2022-10-09T07:49:03.377Z,21.61
2022-10-09T07:51:34.392Z,21.46
2022-10-09T07:54:02.470Z,21.42
2022-10-09T07:56:33.568Z,19.76
2022-10-09T07:59:05.921Z,21.30
2022-10-09T08:01:35.616Z,18.89
2022-10-09T08:04:05.404Z,18.89
2022-10-09T08:06:34.427Z,18.17
2022-10-09T08:09:05.260Z,18.72
2022-10-09T08:11:33.390Z,17.72
2022-10-09T08:14:00.666Z,18.16
2022-10-09T08:16:28.608Z,18.28
2022-10-09T08:19:01.932Z,18.77
2022-10-09T08:21:30.327Z,18.34
2022-10-09T08:23:59.680Z,19.22
2022-10-09T08:26:30.477Z,19.91
2022-10-09T08:29:01.715Z,20.73
2022-10-09T08:31:30.737Z,21.98
2022-10-09T08:34:03.008Z,22.34
2022-10-09T08:36:31.284Z,22.73
2022-10-09T08:38:59.521Z,23.20
2022-10-09T08:41:50.815Z,23.12
2022-10-09T08:44:43.423Z,22.70
2022-10-09T08:47:34.746Z,22.94
2022-10-09T08:50:06.255Z,23.20
2022-10-09T08:53:06.854Z,23.47
2022-10-09T08:55:47.095Z,24.23
2022-10-09T08:58:28.211Z,25.15
2022-10-09T09:01:04.873Z,25.43
2022-10-09T09:03:52.665Z,25.65
2022-10-09T09:06:46.767Z,24.51
2022-10-09T09:09:53.884Z,24.66
2022-10-09T09:12:57.331Z,25.33
2022-10-09T09:16:12.391Z,26.57
2022-10-09T09:19:03.620Z,25.73
2022-10-09T09:21:45.082Z,24.39
2022-10-09T09:24:31.104Z,25.40
2022-10-09T09:27:04.644Z,24.22
2022-10-09T09:29:42.321Z,22.72
2022-10-09T09:32:21.836Z,22.17
2022-10-09T09:34:52.185Z,23.05
2022-10-09T09:37:21.772Z,23.29
2022-10-09T09:42:36.139Z,23.45
2022-10-09T09:45:13.803Z,24.24
2022-10-09T09:47:52.120Z,23.64
2022-10-09T09:50:48.501Z,24.41
2022-10-09T09:53:32.048Z,25.45
2022-10-09T09:55:59.539Z,24.66
2022-10-09T09:58:45.214Z,25.37
2022-10-09T10:01:24.867Z,25.07
2022-10-09T10:03:58.209Z,25.13
2022-10-09T10:06:43.565Z,26.19
2022-10-09T10:09:20.066Z,26.00
2022-10-09T10:11:59.996Z,25.85
2022-10-09T10:14:28.661Z,25.19
2022-10-09T10:17:01.385Z,25.63
2022-10-09T10:19:35.002Z,27.33
2022-10-09T10:22:06.749Z,25.76
2022-10-09T10:24:42.900Z,26.34
2022-10-09T10:27:33.721Z,25.24
2022-10-09T10:30:06.235Z,25.01
2022-10-09T10:32:55.273Z,26.83
2022-10-09T10:35:32.146Z,26.94
2022-10-09T10:38:33.804Z,26.76
2022-10-09T10:41:22.714Z,25.52
2022-10-09T10:44:24.925Z,26.11
2022-10-09T10:47:02.173Z,23.12
2022-10-09T10:49:33.826Z,22.46
2022-10-09T10:52:44.888Z,21.76
2022-10-09T10:55:38.324Z,23.78
2022-10-09T10:58:25.056Z,25.26
2022-10-09T11:01:22.274Z,25.90
2022-10-09T11:04:13.611Z,22.71
2022-10-09T11:07:13.423Z,24.01
2022-10-09T11:10:11.854Z,25.43
2022-10-09T11:13:03.815Z,25.84
2022-10-09T11:15:31.772Z,26.45
2022-10-09T11:18:24.578Z,24.91
2022-10-09T11:21:35.682Z,26.05
2022-10-09T11:24:29.320Z,27.76
2022-10-09T11:27:21.362Z,24.90
2022-10-09T11:30:01.146Z,27.25
2022-10-09T11:35:20.424Z,27.75
2022-10-09T11:38:03.844Z,29.20
2022-10-09T11:40:39.979Z,28.91
2022-10-09T11:43:25.291Z,29.64
2022-10-09T11:46:22.678Z,28.72
2022-10-09T11:49:40.047Z,30.50
2022-10-09T11:52:39.835Z,28.24
2022-10-09T11:55:37.349Z,25.53
2022-10-09T11:58:19.436Z,25.11
2022-10-09T12:00:51.777Z,27.52
2022-10-09T12:03:34.749Z,26.67
2022-10-09T12:06:16.826Z,22.91
2022-10-09T12:08:58.634Z,23.41
2022-10-09T12:11:29.989Z,23.31
2022-10-09T12:14:03.019Z,23.29
2022-10-09T12:16:34.874Z,24.58
2022-10-09T12:19:23.633Z,28.30
2022-10-09T12:21:56.597Z,29.35
2022-10-09T12:24:38.265Z,28.81
2022-10-09T12:27:06.897Z,32.18
2022-10-09T12:29:51.179Z,31.62
2022-10-09T12:32:36.551Z,31.92
2022-10-09T12:35:38.347Z,30.09
2022-10-09T12:38:32.305Z,31.23
2022-10-09T12:41:11.089Z,30.92
2022-10-09T12:43:47.379Z,35.30
2022-10-09T12:46:37.989Z,26.74
2022-10-09T12:49:20.648Z,29.16
2022-10-09T12:51:56.520Z,35.71
2022-10-09T12:54:26.129Z,37.74
2022-10-09T12:56:57.724Z,40.21
2022-10-09T12:59:27.680Z,32.36
2022-10-09T13:02:00.192Z,30.90
2022-10-09T13:04:31.122Z,28.06
2022-10-09T13:07:07.785Z,30.79
2022-10-09T13:09:39.739Z,28.96
2022-10-09T13:12:25.728Z,24.12
2022-10-09T13:15:35.077Z,24.97
2022-10-09T13:18:23.315Z,25.50
2022-10-09T13:21:16.370Z,28.40
2022-10-09T13:23:43.814Z,29.03
2022-10-09T13:26:30.483Z,26.62
2022-10-09T13:29:02.927Z,25.78
2022-10-09T13:31:30.151Z,24.13
2022-10-09T13:33:57.246Z,25.52
2022-10-09T13:36:30.571Z,23.75
2022-10-09T13:38:58.251Z,23.48
2022-10-09T13:41:25.729Z,23.65
2022-10-09T13:43:54.370Z,23.32
2022-10-09T13:46:21.701Z,22.85
2022-10-09T13:48:48.891Z,23.60
2022-10-09T13:51:16.185Z,26.10
2022-10-09T13:53:43.480Z,23.98
2022-10-09T13:56:10.706Z,24.57
2022-10-09T13:58:37.979Z,22.89
2022-10-09T14:01:05.433Z,22.14
2022-10-09T14:03:37.345Z,21.93
2022-10-09T14:06:04.673Z,22.98
2022-10-09T14:08:31.883Z,22.56
2022-10-09T14:11:03.019Z,22.48
2022-10-09T14:13:34.135Z,22.81
2022-10-09T14:16:11.821Z,23.11
2022-10-09T14:18:39.243Z,23.55
2022-10-09T14:21:17.080Z,26.90
2022-10-09T14:23:44.773Z,24.93
2022-10-09T14:26:11.872Z,26.56
2022-10-09T14:28:39.286Z,26.07
2022-10-09T14:31:07.816Z,25.15
2022-10-09T14:33:35.371Z,23.34
2022-10-09T14:36:11.483Z,23.56
2022-10-09T14:38:42.987Z,22.56
2022-10-09T14:41:12.053Z,22.67
2022-10-09T14:43:39.673Z,24.01
2022-10-09T14:46:16.972Z,24.62
2022-10-09T14:48:50.362Z,26.92
2022-10-09T14:51:24.209Z,29.04
2022-10-09T14:53:56.151Z,31.53
2022-10-09T14:56:25.589Z,30.95
2022-10-09T14:58:54.352Z,31.67
2022-10-09T15:01:23.627Z,31.48
2022-10-09T15:03:53.679Z,28.63
2022-10-09T15:06:25.150Z,29.75
2022-10-09T15:09:00.395Z,29.15
2022-10-09T15:11:31.006Z,27.61
2022-10-09T15:13:58.535Z,28.79
2022-10-09T15:16:26.663Z,28.27
2022-10-09T15:18:55.879Z,26.77
2022-10-09T15:21:26.879Z,27.21
2022-10-09T15:23:57.099Z,26.51
2022-10-09T15:26:27.588Z,26.17
2022-10-09T15:28:54.894Z,24.42
2022-10-09T15:31:48.303Z,24.78
2022-10-09T15:34:18.919Z,24.04
2022-10-09T15:36:46.706Z,25.14
2022-10-09T15:39:16.021Z,25.09
2022-10-09T15:41:44.222Z,25.45
2022-10-09T15:44:20.831Z,24.91
2022-10-09T15:46:49.214Z,24.55
2022-10-09T15:49:16.745Z,23.21
2022-10-09T15:51:44.284Z,22.93
2022-10-09T15:54:13.115Z,23.56
2022-10-09T15:56:41.567Z,21.73
2022-10-09T15:59:14.006Z,21.61
2022-10-09T16:01:41.192Z,21.32
2022-10-09T16:04:08.544Z,21.54
2022-10-09T16:06:36.056Z,22.25
2022-10-09T16:09:04.827Z,22.68
2022-10-09T16:11:32.230Z,22.52
2022-10-09T16:14:00.467Z,23.10
2022-10-09T16:16:28.032Z,22.84
2022-10-09T16:18:56.930Z,23.41
2022-10-09T16:21:28.847Z,23.53
2022-10-09T16:23:59.286Z,23.16
2022-10-09T16:26:29.382Z,23.09
2022-10-09T16:28:58.385Z,22.72
2022-10-09T16:31:35.023Z,22.74
2022-10-09T16:34:07.728Z,22.34
2022-10-09T16:36:35.361Z,22.23
2022-10-09T16:39:02.566Z,22.46
2022-10-09T16:41:31.176Z,22.63
2022-10-09T16:44:00.966Z,22.59
2022-10-09T16:49:06.869Z,22.65
2022-10-09T16:51:36.575Z,22.74
2022-10-09T16:54:07.390Z,22.40
2022-10-09T16:56:40.063Z,22.30
2022-10-09T16:59:16.754Z,22.72
2022-10-09T17:01:50.452Z,22.60
2022-10-09T17:04:20.133Z,23.04
2022-10-09T17:06:50.913Z,22.54
2022-10-09T17:09:20.181Z,22.46
2022-10-09T17:11:48.925Z,22.43
2022-10-09T17:14:16.572Z,22.60
2022-10-09T17:16:48.670Z,22.57
2022-10-09T17:19:16.490Z,22.61
2022-10-09T17:21:43.866Z,22.27
2022-10-09T17:24:15.982Z,21.78
2022-10-09T17:26:49.650Z,21.93
2022-10-09T17:29:19.908Z,21.67
2022-10-09T17:31:47.915Z,21.58
2022-10-09T17:34:19.402Z,21.79
2022-10-09T17:36:47.759Z,21.45
2022-10-09T17:39:18.417Z,21.33
2022-10-09T17:41:48.146Z,21.30
2022-10-09T17:44:20.427Z,21.29
2022-10-09T17:46:49.977Z,21.19
2022-10-09T17:49:23.524Z,20.99
2022-10-09T17:51:55.861Z,20.88
2022-10-09T17:54:26.012Z,20.96
2022-10-09T17:56:54.030Z,20.72
2022-10-09T17:59:21.851Z,20.60
2022-10-09T18:01:49.195Z,20.65
2022-10-09T18:04:19.793Z,20.53
2022-10-09T18:06:54.461Z,20.43
2022-10-09T18:09:23.025Z,20.30
2022-10-09T18:11:52.649Z,20.28
2022-10-09T18:14:19.944Z,20.17
2022-10-09T18:16:47.390Z,20.14
2022-10-09T18:19:21.922Z,20.35
2022-10-09T18:21:50.818Z,20.53
2022-10-09T18:24:19.056Z,20.58
2022-10-09T18:26:46.691Z,20.52
2022-10-09T18:29:15.792Z,20.52
2022-10-09T18:31:43.271Z,20.68
2022-10-09T18:34:11.766Z,20.61
2022-10-09T18:36:42.072Z,20.61
2022-10-09T18:39:15.363Z,19.45
2022-10-09T18:41:50.963Z,18.89
2022-10-09T18:44:27.475Z,17.64
2022-10-09T18:47:03.026Z,18.22
2022-10-09T18:49:35.204Z,18.05
2022-10-09T18:52:04.417Z,17.25
2022-10-09T18:54:32.065Z,17.42
2022-10-09T18:57:00.293Z,18.27
2022-10-09T18:59:27.775Z,18.46
2022-10-09T19:01:57.223Z,17.60
2022-10-09T19:04:30.895Z,18.00
2022-10-09T19:07:04.850Z,18.19
2022-10-09T19:09:33.567Z,18.42
2022-10-09T19:12:11.325Z,18.45
2022-10-09T19:14:43.375Z,18.62
2022-10-09T19:17:14.201Z,18.74
2022-10-09T19:19:42.313Z,18.77
2022-10-09T19:22:14.699Z,16.73
2022-10-09T19:24:45.907Z,16.79
2022-10-09T19:27:14.528Z,16.86
2022-10-09T19:29:45.088Z,16.79
2022-10-09T19:32:12.347Z,17.56
2022-10-09T19:34:40.294Z,17.89
2022-10-09T19:37:10.003Z,18.07
2022-10-09T19:39:41.186Z,17.18
2022-10-09T19:42:08.889Z,15.73
2022-10-09T19:44:36.279Z,16.45
2022-10-09T19:47:04.297Z,16.50
2022-10-09T19:49:35.495Z,16.38
2022-10-09T19:52:02.956Z,17.20
2022-10-09T19:54:33.402Z,17.66
2022-10-09T19:57:02.990Z,16.89
2022-10-09T19:59:31.544Z,16.42
2022-10-09T20:01:58.819Z,17.24
2022-10-09T20:04:28.025Z,16.87
2022-10-09T20:06:55.255Z,16.66
2022-10-09T20:09:22.344Z,16.43
2022-10-09T20:11:51.710Z,16.89
2022-10-09T20:14:21.585Z,17.11
2022-10-09T20:16:54.671Z,16.91
2022-10-09T20:19:22.242Z,17.05
2022-10-09T20:21:51.617Z,17.07
2022-10-09T20:24:21.757Z,17.27
2022-10-09T20:26:50.145Z,17.71
2022-10-09T20:29:21.799Z,17.73
2022-10-09T20:31:49.061Z,17.77
2022-10-09T20:34:21.949Z,18.18
2022-10-09T20:36:49.457Z,18.05
2022-10-09T20:39:21.537Z,17.96
2022-10-09T20:41:49.197Z,17.90
2022-10-09T20:44:18.511Z,17.77
2022-10-09T20:46:46.551Z,17.87
2022-10-09T20:49:16.051Z,18.13
2022-10-09T20:51:47.202Z,18.35
2022-10-09T20:54:22.236Z,18.55
2022-10-09T20:56:50.599Z,18.73
2022-10-09T20:59:22.164Z,18.68
2022-10-09T21:01:49.485Z,18.18
2022-10-09T21:04:20.889Z,17.97
2022-10-09T21:06:50.070Z,18.06
2022-10-09T21:09:17.520Z,18.14
2022-10-09T21:11:46.856Z,18.38
2022-10-09T21:14:16.194Z,18.40
2022-10-09T21:16:46.825Z,18.68
2022-10-09T21:19:14.160Z,18.64
2022-10-09T21:21:50.088Z,18.79
2022-10-09T21:24:18.702Z,18.78
2022-10-09T21:26:47.530Z,18.91
2022-10-09T21:29:17.749Z,18.94
2022-10-09T21:31:45.206Z,18.94
2022-10-09T21:34:16.751Z,18.88
2022-10-09T21:37:19.877Z,18.73
2022-10-09T21:39:49.380Z,18.75
2022-10-09T21:42:16.470Z,18.68
2022-10-09T21:44:46.830Z,18.69
2022-10-09T21:47:21.186Z,18.72
2022-10-09T21:49:48.896Z,18.57
2022-10-09T21:52:16.910Z,18.52
2022-10-09T21:54:45.132Z,18.27
2022-10-09T21:57:12.326Z,18.11
2022-10-09T21:59:41.203Z,18.24
2022-10-09T22:02:09.406Z,18.26
2022-10-09T22:04:37.735Z,18.15
2022-10-09T22:07:05.015Z,18.37
2022-10-09T22:09:35.790Z,18.52
2022-10-09T22:12:06.053Z,18.61
2022-10-09T22:14:33.307Z,18.65
2022-10-09T22:17:03.716Z,18.28
2022-10-09T22:19:32.626Z,18.44
2022-10-09T22:21:59.814Z,18.51
2022-10-09T22:24:29.174Z,18.78
2022-10-09T22:26:57.209Z,18.81
2022-10-09T22:29:26.427Z,18.37
2022-10-09T22:31:54.035Z,18.38
2022-10-09T22:34:21.230Z,18.35
2022-10-09T22:36:48.303Z,18.37
2022-10-09T22:39:18.215Z,18.51
2022-10-09T22:41:46.369Z,18.53
2022-10-09T22:44:13.697Z,18.63
2022-10-09T22:46:45.276Z,18.60
2022-10-09T22:49:16.269Z,18.58
2022-10-09T22:51:45.022Z,18.51
2022-10-09T22:54:13.401Z,18.52
2022-10-09T22:56:44.672Z,18.49
2022-10-09T22:59:15.933Z,18.42
2022-10-09T23:01:49.633Z,18.53
2022-10-09T23:04:19.241Z,18.54
2022-10-09T23:06:51.571Z,18.37
2022-10-09T23:09:21.874Z,18.55
2022-10-09T23:11:49.143Z,18.50
2022-10-09T23:14:16.759Z,18.40
2022-10-09T23:16:44.242Z,18.48
2022-10-09T23:19:11.849Z,18.50
2022-10-09T23:21:42.550Z,18.53
2022-10-09T23:24:15.572Z,18.69
2022-10-09T23:26:42.951Z,18.72
2022-10-09T23:29:20.710Z,18.67
2022-10-09T23:31:51.422Z,18.78
2022-10-09T23:34:18.557Z,18.92
2022-10-09T23:36:45.552Z,18.88
2022-10-09T23:39:13.079Z,18.86
2022-10-09T23:41:40.833Z,18.73
2022-10-09T23:44:10.909Z,19.03
2022-10-09T23:46:37.993Z,18.17
2022-10-09T23:49:08.357Z,18.03
2022-10-09T23:51:35.475Z,17.53
2022-10-09T23:54:02.632Z,17.35
2022-10-09T23:56:36.824Z,17.42
2022-10-09T23:59:06.601Z,17.49
